Pagrindinis puslapis
METAR-TAF:

METAR-TAF

Oro uostai :

Tawau, Malaizija

platuma: 04-16N, ilguma: 117-53E, Aukštis: 18 m

Dabartinis oras

Ataskaita buvo paskelbta 1 valandą ir 8 minutes, ne 19:00 UTC
Vėjas 3 kt iš Šiaurės/Šiaurės Vakarų, svyruoja nuo Vakarų/Šiaurės Vakarų ir Šiaurės
Temperatūra 25°C
Drėgmė 94%
Slėgis 1010 hPa
Matomumas 10 km arba daugiau
Mažai debesys ne aukštis 1700 ft
Su prošvaistėmis ne aukštis 30000 ft

METAR: WBKW 201900Z 33003KT 290V010 9999 FEW017 BKN300 25/24 Q1010

Laikas: 04:08 (20:08 UTC)

Prognozė

Ataskaita buvo paskelbta 3 valandos ir 8 minutes, ne 17:00 UTC
Prognozė galioja nuo 20 metu 18 UTC su 21 metu 18 UTC
Vėjas 5 kt iš Šiaurės/Šiaurės Vakarų
Matomumas: 9000 m
Mažai debesys ne aukštis 1700 ft
Tapsmas
nuo 20 metu 23 UTC su 21 metu 01 UTC
Vėjas 7 kt iš Pietų/Pietryčių

TAF: WBKW 201700Z 2018/2118 33005KT 9000 FEW017 BECMG 2023/2101 16007KT

Orai ataskaitas ir orų prognozės (METAR, TAF).

turimą stotys yra geltonos ir raudonos taškus žemėlapyje.

Perkelti pele per norėdami pamatyti stoties vardą.

Tada spustelėkite, norėdami matyti oro stebėjimo ir prognozės.

Norėdami pakeisti žemėlapį: spustelėkite ant žalios mygtukų su juodo kryžiaus žemyn,; žalią mygtuką su brūkšneliu, jei norite nutolinti; arba žalių rodyklių gretimoms žemėlapius.


METAR-TAF: